Time;durP1;ratioP1;P1;durP2;ratioP2;P2;SDS_P1;SDS_P2;PMS_P1;PMS_P2;Temp;Humidity;BMP_temperature;BMP_pressure;BME280_temperature;BME280_humidity;BME280_pressure;Samples;Min_cycle;Max_cycle;Signal;HPM_P1;HPM_P2
2021/07/07 00:00:24;;;;;;;2.90;1.95;;;;;;;-146.52;100.00;63329.72;1006452;29;20042;-84
2021/07/07 00:00:56;;;;;;;1.98;1.52;;;;;;;-146.52;100.00;63329.72;1002617;29;20086;-84
2021/07/07 00:01:26;;;;;;;2.22;1.58;;;;;;;-146.52;100.00;63329.72;1002489;29;20014;-82
2021/07/07 00:01:57;;;;;;;2.42;1.60;;;;;;;-146.52;100.00;63329.72;997652;29;20027;-84
2021/07/07 00:02:27;;;;;;;3.03;1.80;;;;;;;-146.52;100.00;63329.72;1007160;29;20097;-85
2021/07/07 00:02:58;;;;;;;2.92;1.85;;;;;;;-146.52;100.00;63329.72;1006480;29;20112;-86
2021/07/07 00:03:29;;;;;;;3.03;1.83;;;;;;;-146.52;100.00;63329.72;999390;29;20054;-85
2021/07/07 00:04:00;;;;;;;3.60;1.83;;;;;;;-146.52;100.00;63329.72;999427;29;20113;-86
2021/07/07 00:04:30;;;;;;;4.97;1.92;;;;;;;-146.52;100.00;63329.72;1003984;29;20040;-86
2021/07/07 00:05:01;;;;;;;4.07;1.50;;;;;;;-146.52;100.00;63329.72;1000361;29;20037;-86
2021/07/07 00:05:31;;;;;;;3.08;1.60;;;;;;;-146.52;100.00;63329.72;1001080;29;20030;-87
2021/07/07 00:06:02;;;;;;;4.18;2.00;;;;;;;-146.52;100.00;63329.72;1008852;29;20033;-87
2021/07/07 00:06:33;;;;;;;2.85;1.40;;;;;;;-146.52;100.00;63329.72;1002172;29;20063;-87
2021/07/07 00:07:03;;;;;;;2.65;1.35;;;;;;;-146.52;100.00;63329.72;1010078;29;20081;-86
2021/07/07 00:07:35;;;;;;;3.85;1.55;;;;;;;-146.52;100.00;63329.72;1002707;29;20033;-87
2021/07/07 00:08:06;;;;;;;5.13;2.05;;;;;;;-146.52;100.00;63329.72;1010180;29;20022;-86
2021/07/07 00:08:37;;;;;;;3.97;1.80;;;;;;;-146.52;100.00;63329.72;1010389;29;20024;-85
2021/07/07 00:09:09;;;;;;;2.42;1.85;;;;;;;-146.52;100.00;63329.72;1002862;29;20049;-88
2021/07/07 00:09:40;;;;;;;2.78;1.60;;;;;;;-146.52;100.00;63329.72;1010268;29;20078;-87
2021/07/07 00:10:13;;;;;;;2.35;1.70;;;;;;;-146.52;100.00;63329.72;1010269;29;20014;-86
2021/07/07 00:10:44;;;;;;;2.92;1.85;;;;;;;-146.52;100.00;63329.72;1006092;29;21006;-88
2021/07/07 00:11:14;;;;;;;5.50;1.70;;;;;;;-146.52;100.00;63329.72;1009360;29;20040;-86
2021/07/07 00:11:45;;;;;;;3.58;1.50;;;;;;;-146.52;100.00;63329.72;996780;29;20023;-86
2021/07/07 00:12:16;;;;;;;2.85;1.70;;;;;;;-146.52;100.00;63329.72;1000405;29;20026;-88
2021/07/07 00:12:47;;;;;;;2.33;1.63;;;;;;;-146.52;100.00;63329.72;1005239;29;20026;-89
2021/07/07 00:13:18;;;;;;;1.70;1.35;;;;;;;-146.52;100.00;63329.72;1010076;29;20044;-89
2021/07/07 00:13:49;;;;;;;2.78;1.40;;;;;;;-146.52;100.00;63329.72;1010258;29;20044;-88
2021/07/07 00:14:20;;;;;;;2.97;1.90;;;;;;;-146.52;100.00;63329.72;1010265;29;20085;-88
2021/07/07 00:14:51;;;;;;;2.28;1.83;;;;;;;-146.52;100.00;63329.72;1010307;29;20021;-90
2021/07/07 00:15:22;;;;;;;2.10;1.52;;;;;;;-146.52;100.00;63329.72;1010126;29;20020;-88
2021/07/07 00:15:52;;;;;;;3.58;1.60;;;;;;;-146.52;100.00;63329.72;1010169;29;20032;-88
2021/07/07 00:16:23;;;;;;;2.53;1.50;;;;;;;-146.52;100.00;63329.72;1006391;29;20018;-88
2021/07/07 00:16:53;;;;;;;1.58;1.40;;;;;;;-146.52;100.00;63329.72;1001962;29;20026;-88
2021/07/07 00:17:24;;;;;;;1.77;1.42;;;;;;;-146.52;100.00;63329.72;1006159;29;20033;-87
2021/07/07 00:17:54;;;;;;;2.15;1.52;;;;;;;-146.52;100.00;63329.72;1013734;29;20108;-88
2021/07/07 00:18:25;;;;;;;2.97;1.77;;;;;;;-146.52;100.00;63329.72;1001508;29;20113;-87
2021/07/07 00:18:56;;;;;;;2.35;1.60;;;;;;;-146.52;100.00;63329.72;1008330;29;20069;-86
2021/07/07 00:19:26;;;;;;;2.05;1.48;;;;;;;-146.52;100.00;63329.72;1002196;29;20090;-87
2021/07/07 00:19:57;;;;;;;2.03;1.60;;;;;;;-146.52;100.00;63329.72;1010234;29;20045;-89
2021/07/07 00:20:34;;;;;;;3.38;1.58;;;;;;;-146.52;100.00;63329.72;1006359;29;20110;-87
2021/07/07 00:21:04;;;;;;;2.67;1.70;;;;;;;-146.52;100.00;63329.72;1002204;29;20017;-85
2021/07/07 00:21:35;;;;;;;3.53;1.65;;;;;;;-146.52;100.00;63329.72;1002180;29;20033;-87
2021/07/07 00:22:05;;;;;;;4.55;1.85;;;;;;;-146.52;100.00;63329.72;1006536;29;20010;-87
2021/07/07 00:22:36;;;;;;;2.80;1.73;;;;;;;-146.52;100.00;63329.72;1001878;29;20157;-86
2021/07/07 00:23:07;;;;;;;3.15;1.75;;;;;;;-146.52;100.00;63329.72;999623;29;20019;-86
2021/07/07 00:23:37;;;;;;;2.85;1.55;;;;;;;-146.52;100.00;63329.72;1010545;29;20021;-85
2021/07/07 00:24:09;;;;;;;3.35;1.60;;;;;;;-146.52;100.00;63329.72;1001012;29;20037;-85
2021/07/07 00:24:40;;;;;;;2.00;1.40;;;;;;;-146.52;100.00;63329.72;999035;29;20524;-86
2021/07/07 00:25:11;;;;;;;3.63;1.73;;;;;;;-146.52;100.00;63329.72;997560;29;20543;-85
2021/07/07 00:25:42;;;;;;;3.60;1.52;;;;;;;-146.52;100.00;63329.72;1006827;29;20022;-86
2021/07/07 00:26:12;;;;;;;2.22;1.33;;;;;;;-146.52;100.00;63329.72;1003598;29;20118;-85
2021/07/07 00:26:43;;;;;;;2.47;1.60;;;;;;;-146.52;100.00;63329.72;1004381;29;20101;-86
2021/07/07 00:27:13;;;;;;;2.22;1.52;;;;;;;-146.52;100.00;63329.72;1010998;29;20123;-85
2021/07/07 00:27:44;;;;;;;3.88;1.70;;;;;;;-146.52;100.00;63329.72;1007949;29;20040;-85
2021/07/07 00:28:15;;;;;;;1.88;1.42;;;;;;;-146.52;100.00;63329.72;995821;29;20031;-85
2021/07/07 00:28:45;;;;;;;3.05;1.67;;;;;;;-146.52;100.00;63329.72;1003360;29;20034;-85
2021/07/07 00:29:16;;;;;;;2.08;1.20;;;;;;;-146.52;100.00;63329.72;999428;29;20026;-85
2021/07/07 00:29:48;;;;;;;2.22;1.63;;;;;;;-146.52;100.00;63329.72;1006534;29;20022;-87
2021/07/07 00:30:19;;;;;;;2.58;1.45;;;;;;;-146.52;100.00;63329.72;1006393;29;20017;-87
2021/07/07 00:30:50;;;;;;;3.40;1.48;;;;;;;-146.52;100.00;63329.72;991335;30;20443;-87
2021/07/07 00:31:20;;;;;;;2.63;1.70;;;;;;;-146.52;100.00;63329.72;1005861;29;20018;-84
2021/07/07 00:31:51;;;;;;;5.30;1.67;;;;;;;-146.52;100.00;63329.72;998893;29;20117;-86
2021/07/07 00:32:21;;;;;;;2.97;1.70;;;;;;;-146.52;100.00;63329.72;1009874;29;20108;-84
2021/07/07 00:32:52;;;;;;;1.95;1.40;;;;;;;-146.52;100.00;63329.72;1002180;29;20051;-84
2021/07/07 00:33:23;;;;;;;2.70;1.90;;;;;;;-146.52;100.00;63329.72;994803;29;20511;-87
2021/07/07 00:33:53;;;;;;;2.58;1.77;;;;;;;-146.52;100.00;63329.72;999709;29;20239;-85
2021/07/07 00:34:24;;;;;;;1.73;1.30;;;;;;;-146.52;100.00;63329.72;1006287;29;20009;-87
2021/07/07 00:34:54;;;;;;;4.43;1.50;;;;;;;-146.52;100.00;63329.72;1002518;29;20037;-87
2021/07/07 00:35:25;;;;;;;2.45;1.63;;;;;;;-146.52;100.00;63329.72;1005939;29;20037;-85
2021/07/07 00:35:55;;;;;;;2.38;1.65;;;;;;;-146.52;100.00;63329.72;1003117;29;20109;-85
2021/07/07 00:36:26;;;;;;;5.07;2.00;;;;;;;-146.52;100.00;63329.72;995145;29;20058;-85
2021/07/07 00:36:57;;;;;;;2.92;2.10;;;;;;;-146.52;100.00;63329.72;995139;29;20110;-85
2021/07/07 00:37:27;;;;;;;3.50;1.90;;;;;;;-146.52;100.00;63329.72;995268;29;20023;-85
2021/07/07 00:37:58;;;;;;;3.00;1.80;;;;;;;-146.52;100.00;63329.72;1004003;29;20059;-84
2021/07/07 00:38:28;;;;;;;4.30;1.60;;;;;;;-146.52;100.00;63329.72;1004447;29;20091;-86
2021/07/07 00:38:59;;;;;;;3.25;1.77;;;;;;;-146.52;100.00;63329.72;1008168;29;20058;-88
2021/07/07 00:39:30;;;;;;;3.47;1.85;;;;;;;-146.52;100.00;63329.72;1007857;29;20105;-86
2021/07/07 00:40:01;;;;;;;2.65;1.75;;;;;;;-146.52;100.00;63329.72;995059;29;20573;-88
2021/07/07 00:40:31;;;;;;;3.22;1.90;;;;;;;-146.52;100.00;63329.72;998366;29;20551;-88
2021/07/07 00:41:02;;;;;;;2.40;1.55;;;;;;;-146.52;100.00;63329.72;998640;29;20030;-88
2021/07/07 00:41:33;;;;;;;3.70;1.60;;;;;;;-146.52;100.00;63329.72;1002191;29;20022;-87
2021/07/07 00:42:04;;;;;;;2.40;1.52;;;;;;;-146.52;100.00;63329.72;998972;29;20028;-85
2021/07/07 00:42:34;;;;;;;3.10;1.55;;;;;;;-146.52;100.00;63329.72;1002736;29;20515;-86
2021/07/07 00:43:05;;;;;;;4.55;2.00;;;;;;;-146.52;100.00;63329.72;1004157;29;20085;-86
2021/07/07 00:43:36;;;;;;;3.50;1.60;;;;;;;-146.52;100.00;63329.72;1013422;29;20024;-86
2021/07/07 00:44:06;;;;;;;3.15;1.85;;;;;;;-146.52;100.00;63329.72;1005958;29;20017;-85
2021/07/07 00:44:40;;;;;;;3.97;1.95;;;;;;;-146.52;100.00;63329.72;1005862;29;20026;-89
2021/07/07 00:45:11;;;;;;;3.30;1.80;;;;;;;-146.52;100.00;63329.72;1009728;29;20014;-86
2021/07/07 00:45:43;;;;;;;4.32;2.10;;;;;;;-146.52;100.00;63329.72;1001312;29;20026;-84
2021/07/07 00:46:13;;;;;;;3.10;1.90;;;;;;;-146.52;100.00;63329.72;1001365;29;20045;-83
2021/07/07 00:46:45;;;;;;;4.78;2.03;;;;;;;-146.52;100.00;63329.72;1009017;29;20161;-82
2021/07/07 00:47:16;;;;;;;2.40;1.77;;;;;;;-146.52;100.00;63329.72;1003696;29;20029;-82
2021/07/07 00:47:47;;;;;;;2.95;1.60;;;;;;;-146.52;100.00;63329.72;1001693;29;20050;-87
2021/07/07 00:48:17;;;;;;;4.13;1.60;;;;;;;-146.52;100.00;63329.72;1009044;29;20013;-84
2021/07/07 00:48:48;;;;;;;4.25;1.73;;;;;;;-146.52;100.00;63329.72;1001263;29;20176;-83
2021/07/07 00:49:19;;;;;;;3.38;1.65;;;;;;;-146.52;100.00;63329.72;1009351;29;20085;-82
2021/07/07 00:49:50;;;;;;;2.38;1.58;;;;;;;-146.52;100.00;63329.72;1009656;29;20109;-84
2021/07/07 00:50:20;;;;;;;1.98;1.40;;;;;;;-146.52;100.00;63329.72;1002090;29;20449;-82
2021/07/07 00:50:51;;;;;;;2.38;1.58;;;;;;;-146.52;100.00;63329.72;1013256;29;20025;-84
2021/07/07 00:51:22;;;;;;;3.53;1.88;;;;;;;-146.52;100.00;63329.72;1009575;29;20049;-82
2021/07/07 00:51:53;;;;;;;2.95;1.60;;;;;;;-146.52;100.00;63329.72;998091;29;20072;-84
2021/07/07 00:52:24;;;;;;;3.83;1.63;;;;;;;-146.52;100.00;63329.72;1005379;29;20059;-84
2021/07/07 00:52:56;;;;;;;3.65;1.90;;;;;;;-146.52;100.00;63329.72;1005709;29;20029;-82
2021/07/07 00:53:27;;;;;;;3.13;1.92;;;;;;;-146.52;100.00;63329.72;1005560;29;20061;-82
2021/07/07 00:53:59;;;;;;;3.72;1.90;;;;;;;-146.52;100.00;63329.72;1013159;29;20036;-83
2021/07/07 00:54:31;;;;;;;3.63;1.92;;;;;;;-146.52;100.00;63329.72;1005519;29;20026;-82
2021/07/07 00:55:09;;;;;;;3.95;2.15;;;;;;;-146.52;100.00;63329.72;1012627;29;20057;-83
2021/07/07 00:55:41;;;;;;;3.13;2.05;;;;;;;-146.52;100.00;63329.72;1008635;29;20085;-84
2021/07/07 00:56:11;;;;;;;4.55;1.80;;;;;;;-146.52;100.00;63329.72;1004644;29;20041;-83
2021/07/07 00:56:43;;;;;;;2.20;1.60;;;;;;;-146.52;100.00;63329.72;1008379;29;20021;-84
2021/07/07 00:57:15;;;;;;;2.22;1.70;;;;;;;-146.52;100.00;63329.72;1005084;29;20473;-83
2021/07/07 00:57:45;;;;;;;3.72;1.83;;;;;;;-146.52;100.00;63329.72;994659;30;20015;-82
2021/07/07 00:58:16;;;;;;;3.30;1.90;;;;;;;-146.52;100.00;63329.72;1008228;29;20054;-83
2021/07/07 00:58:47;;;;;;;2.05;1.73;;;;;;;-146.52;100.00;63329.72;994094;29;20027;-83
2021/07/07 00:59:19;;;;;;;2.95;2.05;;;;;;;-146.52;100.00;63329.72;1005420;29;20025;-83
2021/07/07 00:59:50;;;;;;;4.00;2.10;;;;;;;-146.52;100.00;63329.72;1005671;29;20488;-83
2021/07/07 01:00:22;;;;;;;2.50;1.70;;;;;;;-146.52;100.00;63329.72;1009201;29;20085;-83
2021/07/07 01:00:53;;;;;;;4.05;2.28;;;;;;;-146.52;100.00;63329.72;998030;29;20014;-83
2021/07/07 01:01:23;;;;;;;3.97;1.73;;;;;;;-146.52;100.00;63329.72;1001782;29;20078;-83
2021/07/07 01:01:54;;;;;;;3.65;1.70;;;;;;;-146.52;100.00;63329.72;1005932;29;20033;-82
2021/07/07 01:02:25;;;;;;;3.75;1.80;;;;;;;-146.52;100.00;63329.72;998166;29;20014;-84
2021/07/07 01:02:57;;;;;;;3.83;1.58;;;;;;;-146.52;100.00;63329.72;998397;29;20098;-82
2021/07/07 01:03:28;;;;;;;3.97;1.75;;;;;;;-146.52;100.00;63329.72;998321;29;20118;-82
2021/07/07 01:03:58;;;;;;;2.45;1.50;;;;;;;-146.52;100.00;63329.72;1006519;29;20014;-83
2021/07/07 01:04:29;;;;;;;2.95;1.50;;;;;;;-146.52;100.00;63329.72;1001515;29;20082;-84
2021/07/07 01:05:00;;;;;;;3.72;1.95;;;;;;;-146.52;100.00;63329.72;1006960;29;20060;-84
2021/07/07 01:05:31;;;;;;;3.35;1.50;;;;;;;-146.52;100.00;63329.72;1002503;29;20030;-84
2021/07/07 01:06:01;;;;;;;2.47;1.60;;;;;;;-146.52;100.00;63329.72;1006174;29;20025;-86
2021/07/07 01:06:32;;;;;;;2.78;1.67;;;;;;;-146.52;100.00;63329.72;1006101;29;20462;-85
2021/07/07 01:07:03;;;;;;;3.35;1.50;;;;;;;-146.52;100.00;63329.72;1002026;29;20179;-84
2021/07/07 01:07:33;;;;;;;3.85;1.70;;;;;;;-146.52;100.00;63329.72;1002024;29;20480;-85
2021/07/07 01:08:04;;;;;;;2.83;1.80;;;;;;;-146.52;100.00;63329.72;1001809;29;20158;-86
2021/07/07 01:08:35;;;;;;;5.88;1.40;;;;;;;-146.52;100.00;63329.72;998229;29;20086;-86
2021/07/07 01:09:05;;;;;;;1.63;1.17;;;;;;;-146.52;100.00;63329.72;1007046;29;20018;-85
2021/07/07 01:09:36;;;;;;;2.85;1.23;;;;;;;-146.52;100.00;63329.72;998199;29;20025;-86
2021/07/07 01:10:08;;;;;;;2.20;1.30;;;;;;;-146.52;100.00;63329.72;1002005;29;20018;-85
2021/07/07 01:10:38;;;;;;;3.25;1.45;;;;;;;-146.52;100.00;63329.72;1003275;29;20026;-85
2021/07/07 01:11:09;;;;;;;2.92;1.42;;;;;;;-146.52;100.00;63329.72;1001778;29;20010;-88
2021/07/07 01:11:40;;;;;;;7.22;1.70;;;;;;;-146.52;100.00;63329.72;1005881;29;20085;-83
2021/07/07 01:12:10;;;;;;;2.30;1.40;;;;;;;-146.52;100.00;63329.72;1009041;29;20081;-85
2021/07/07 01:12:41;;;;;;;2.13;1.58;;;;;;;-146.52;100.00;63329.72;1005220;29;20018;-84
2021/07/07 01:13:13;;;;;;;1.40;1.17;;;;;;;-146.52;100.00;63329.72;1004330;29;20022;-85
2021/07/07 01:13:44;;;;;;;1.80;1.40;;;;;;;-146.52;100.00;63329.72;1007733;29;20054;-85
2021/07/07 01:14:14;;;;;;;3.15;1.48;;;;;;;-146.52;100.00;63329.72;1007665;29;20085;-85
2021/07/07 01:14:45;;;;;;;2.15;1.30;;;;;;;-146.52;100.00;63329.72;999248;29;20023;-85
2021/07/07 01:15:17;;;;;;;1.85;1.20;;;;;;;-146.52;100.00;63329.72;1002488;29;20101;-85
2021/07/07 01:15:47;;;;;;;2.00;1.40;;;;;;;-146.52;100.00;63329.72;990981;29;20060;-86
2021/07/07 01:16:18;;;;;;;2.63;1.20;;;;;;;-146.52;100.00;63329.72;1002062;29;20021;-85
2021/07/07 01:16:49;;;;;;;1.92;1.48;;;;;;;-146.52;100.00;63329.72;1002040;29;20090;-84
2021/07/07 01:17:21;;;;;;;2.00;1.33;;;;;;;-146.52;100.00;63329.72;998161;29;20043;-86
2021/07/07 01:17:51;;;;;;;2.13;1.60;;;;;;;-146.52;100.00;63329.72;999679;29;20033;-85
2021/07/07 01:18:22;;;;;;;2.97;1.58;;;;;;;-146.52;100.00;63329.72;1005872;29;20002;-86
2021/07/07 01:18:54;;;;;;;2.22;1.40;;;;;;;-146.52;100.00;63329.72;1006102;29;20018;-85
2021/07/07 01:19:24;;;;;;;2.08;1.30;;;;;;;-146.52;100.00;63329.72;1001947;29;20011;-87
2021/07/07 01:19:56;;;;;;;2.35;1.52;;;;;;;-146.52;100.00;63329.72;1005903;29;20094;-85
2021/07/07 01:20:26;;;;;;;2.17;1.50;;;;;;;-146.52;100.00;63329.72;998632;29;20014;-85
2021/07/07 01:20:57;;;;;;;3.33;1.60;;;;;;;-146.52;100.00;63329.72;1002610;29;20125;-85
2021/07/07 01:21:27;;;;;;;2.35;1.45;;;;;;;-146.52;100.00;63329.72;1001780;29;20110;-86
2021/07/07 01:21:58;;;;;;;3.53;1.80;;;;;;;-146.52;100.00;63329.72;998031;29;20014;-86
2021/07/07 01:22:29;;;;;;;3.08;1.48;;;;;;;-146.52;100.00;63329.72;998104;29;20489;-85
2021/07/07 01:23:00;;;;;;;2.22;1.55;;;;;;;-146.52;100.00;63329.72;1005508;29;20022;-86
2021/07/07 01:23:30;;;;;;;2.42;1.33;;;;;;;-146.52;100.00;63329.72;997844;29;20025;-85
2021/07/07 01:24:01;;;;;;;2.75;1.65;;;;;;;-146.52;100.00;63329.72;1005638;29;20014;-86
2021/07/07 01:24:31;;;;;;;2.28;1.48;;;;;;;-146.52;100.00;63329.72;997871;29;20070;-85
2021/07/07 01:25:04;;;;;;;2.10;1.30;;;;;;;-146.52;100.00;63329.72;997988;29;20033;-85
2021/07/07 01:25:34;;;;;;;2.35;1.70;;;;;;;-146.52;100.00;63329.72;997801;29;20170;-85
2021/07/07 01:26:05;;;;;;;2.80;1.50;;;;;;;-146.52;100.00;63329.72;1005576;29;20025;-85
2021/07/07 01:26:36;;;;;;;1.77;1.10;;;;;;;-146.52;100.00;63329.72;1002061;29;20041;-85
2021/07/07 01:27:06;;;;;;;1.42;1.20;;;;;;;-146.52;100.00;63329.72;998260;29;20419;-83
2021/07/07 01:27:38;;;;;;;1.80;1.20;;;;;;;-146.52;100.00;63329.72;996913;29;20065;-83
2021/07/07 01:28:08;;;;;;;2.30;1.60;;;;;;;-146.52;100.00;63329.72;1007621;29;20064;-83
2021/07/07 01:28:39;;;;;;;4.18;1.63;;;;;;;-146.52;100.00;63329.72;1003083;29;20033;-83
2021/07/07 01:29:10;;;;;;;2.60;1.55;;;;;;;-146.52;100.00;63329.72;1001888;29;20022;-84
2021/07/07 01:29:40;;;;;;;1.55;1.20;;;;;;;-146.52;100.00;63329.72;1001520;29;20018;-84
2021/07/07 01:30:16;;;;;;;2.78;1.42;;;;;;;-146.52;100.00;63329.72;996166;29;20039;-87
2021/07/07 01:30:50;;;;;;;1.27;1.17;;;;;;;-146.52;100.00;63329.72;1002990;24;20018;-84
2021/07/07 01:31:20;;;;;;;1.60;1.20;;;;;;;-146.52;100.00;63329.72;1005503;29;20079;-84
2021/07/07 01:32:33;;;;;;;1.50;1.20;;;;;;;-146.52;100.00;63329.72;1000780;29;20042;-85
2021/07/07 01:33:03;;;;;;;1.63;1.30;;;;;;;-146.52;100.00;63329.72;1004810;29;20118;-85
2021/07/07 01:33:35;;;;;;;6.68;1.40;;;;;;;-146.52;100.00;63329.72;1004916;29;20036;-83
2021/07/07 01:34:07;;;;;;;2.28;1.35;;;;;;;-146.52;100.00;63329.72;1006166;29;20008;-82
2021/07/07 01:34:37;;;;;;;3.10;1.30;;;;;;;-146.52;100.00;63329.72;1013780;29;20020;-83
2021/07/07 01:35:09;;;;;;;2.90;1.40;;;;;;;-146.52;100.00;63329.72;1013602;29;20009;-83
2021/07/07 01:35:39;;;;;;;1.55;1.15;;;;;;;-146.52;100.00;63329.72;1006026;29;20053;-84
2021/07/07 01:36:10;;;;;;;2.50;1.20;;;;;;;-146.52;100.00;63329.72;1009699;29;20009;-87
2021/07/07 01:36:41;;;;;;;3.70;1.40;;;;;;;-146.52;100.00;63329.72;1005969;29;20029;-84
2021/07/07 01:37:11;;;;;;;2.28;1.45;;;;;;;-146.52;100.00;63329.72;1009906;29;20039;-84
2021/07/07 01:37:42;;;;;;;2.60;1.30;;;;;;;-146.52;100.00;63329.72;1013734;29;20044;-85
2021/07/07 01:38:13;;;;;;;3.08;1.40;;;;;;;-146.52;100.00;63329.72;1005985;29;20045;-85
2021/07/07 01:38:44;;;;;;;2.50;1.30;;;;;;;-146.52;100.00;63329.72;1013880;29;20106;-86
2021/07/07 01:39:14;;;;;;;1.83;1.30;;;;;;;-146.52;100.00;63329.72;1017771;29;20017;-87
2021/07/07 01:39:45;;;;;;;2.40;1.42;;;;;;;-146.52;100.00;63329.72;1013817;29;20017;-88
2021/07/07 01:40:19;;;;;;;2.90;1.40;;;;;;;-146.52;100.00;63329.72;1009821;29;20028;-84
2021/07/07 01:40:50;;;;;;;2.35;1.30;;;;;;;-146.52;100.00;63329.72;1010014;29;20005;-86
2021/07/07 01:41:20;;;;;;;3.92;1.30;;;;;;;-146.52;100.00;63329.72;1011164;29;20006;-87
2021/07/07 01:41:52;;;;;;;4.25;1.35;;;;;;;-146.52;100.00;63329.72;1017700;29;20036;-85
2021/07/07 01:42:24;;;;;;;2.75;1.55;;;;;;;-146.52;100.00;63329.72;1006078;29;20057;-86
2021/07/07 01:42:55;;;;;;;2.72;1.13;;;;;;;-146.52;100.00;63329.72;1013615;29;20028;-86
2021/07/07 01:43:27;;;;;;;1.83;1.25;;;;;;;-146.52;100.00;63329.72;1009885;29;20084;-85
2021/07/07 01:43:59;;;;;;;2.83;1.48;;;;;;;-146.52;100.00;63329.72;1009900;29;20013;-84
2021/07/07 01:44:30;;;;;;;2.50;1.40;;;;;;;-146.52;100.00;63329.72;1006097;29;20054;-84
2021/07/07 01:45:01;;;;;;;2.38;1.58;;;;;;;-146.52;100.00;63329.72;1010023;29;20009;-87
2021/07/07 01:45:33;;;;;;;2.47;1.63;;;;;;;-146.52;100.00;63329.72;1009879;29;20041;-87
2021/07/07 01:46:04;;;;;;;2.00;1.40;;;;;;;-146.52;100.00;63329.72;1009889;29;20068;-84
2021/07/07 01:46:34;;;;;;;2.97;1.30;;;;;;;-146.52;100.00;63329.72;1002319;29;20087;-85
2021/07/07 01:47:06;;;;;;;2.30;1.30;;;;;;;-146.52;100.00;63329.72;1005350;29;20061;-82
2021/07/07 01:47:37;;;;;;;1.52;1.23;;;;;;;-146.52;100.00;63329.72;1008111;29;20021;-84
2021/07/07 01:48:07;;;;;;;2.03;1.30;;;;;;;-146.52;100.00;63329.72;1002839;29;20036;-83
2021/07/07 01:48:38;;;;;;;1.92;1.40;;;;;;;-146.52;100.00;63329.72;1002491;29;20038;-83
2021/07/07 01:49:09;;;;;;;1.80;1.30;;;;;;;-146.52;100.00;63329.72;1009644;29;20057;-85
2021/07/07 01:49:39;;;;;;;2.88;1.25;;;;;;;-146.52;100.00;63329.72;998458;29;20023;-85
2021/07/07 01:50:11;;;;;;;1.40;1.05;;;;;;;-146.52;100.00;63329.72;1007937;29;20026;-84
2021/07/07 01:50:42;;;;;;;1.40;1.13;;;;;;;-146.52;100.00;63329.72;1001239;29;20026;-83
2021/07/07 01:51:12;;;;;;;2.55;1.38;;;;;;;-146.52;100.00;63329.72;1008436;29;20488;-84
2021/07/07 01:51:43;;;;;;;2.38;1.27;;;;;;;-146.52;100.00;63329.72;1005254;29;20188;-84
2021/07/07 01:52:13;;;;;;;2.50;1.20;;;;;;;-146.52;100.00;63329.72;1004136;29;20022;-86
2021/07/07 01:52:44;;;;;;;2.15;1.20;;;;;;;-146.52;100.00;63329.72;1002357;29;20029;-83
2021/07/07 01:53:15;;;;;;;1.67;1.20;;;;;;;-146.52;100.00;63329.72;1006057;29;20017;-84
2021/07/07 01:53:46;;;;;;;3.22;1.30;;;;;;;-146.52;100.00;63329.72;1005538;29;20097;-85
2021/07/07 01:54:16;;;;;;;2.75;1.48;;;;;;;-146.52;100.00;63329.72;1001950;29;20077;-87
2021/07/07 01:54:47;;;;;;;1.65;1.27;;;;;;;-146.52;100.00;63329.72;1006009;29;20089;-85
2021/07/07 01:55:18;;;;;;;2.05;1.30;;;;;;;-146.52;100.00;63329.72;1011835;29;20176;-85
2021/07/07 01:55:48;;;;;;;1.58;1.10;;;;;;;-146.52;100.00;63329.72;999720;29;20018;-86
2021/07/07 01:56:19;;;;;;;3.53;1.35;;;;;;;-146.52;100.00;63329.72;1002055;29;20022;-85
2021/07/07 01:56:49;;;;;;;2.38;1.30;;;;;;;-146.52;100.00;63329.72;1001621;29;20114;-86
2021/07/07 01:57:21;;;;;;;1.70;1.15;;;;;;;-146.52;100.00;63329.72;998012;29;20113;-85
2021/07/07 01:57:51;;;;;;;3.47;1.20;;;;;;;-146.52;100.00;63329.72;1005673;29;20018;-84
2021/07/07 01:58:22;;;;;;;3.25;1.45;;;;;;;-146.52;100.00;63329.72;994094;29;20154;-86
2021/07/07 01:58:52;;;;;;;2.42;1.38;;;;;;;-146.52;100.00;63329.72;1001718;29;20018;-84
2021/07/07 01:59:23;;;;;;;1.77;1.40;;;;;;;-146.52;100.00;63329.72;1002029;29;20024;-84
2021/07/07 01:59:54;;;;;;;2.33;1.50;;;;;;;-146.52;100.00;63329.72;1005158;29;20081;-85
2021/07/07 02:00:26;;;;;;;3.88;1.60;;;;;;;-146.52;100.00;63329.72;1005308;29;20085;-83
2021/07/07 02:00:57;;;;;;;2.20;1.50;;;;;;;-146.52;100.00;63329.72;1005441;29;20018;-84
2021/07/07 02:01:28;;;;;;;2.00;1.42;;;;;;;-146.52;100.00;63329.72;1002204;29;20022;-86
2021/07/07 02:01:59;;;;;;;4.00;1.42;;;;;;;-146.52;100.00;63329.72;1005646;29;20017;-87
2021/07/07 02:02:30;;;;;;;2.47;1.30;;;;;;;-146.52;100.00;63329.72;1002434;29;20099;-88
2021/07/07 02:03:00;;;;;;;1.70;1.23;;;;;;;-146.52;100.00;63329.72;1009871;29;20026;-87
2021/07/07 02:03:31;;;;;;;2.40;1.30;;;;;;;-146.52;100.00;63329.72;1004769;29;21219;-88
2021/07/07 02:04:02;;;;;;;3.08;1.45;;;;;;;-146.52;100.00;63329.72;998253;29;20022;-87
2021/07/07 02:04:33;;;;;;;1.60;1.30;;;;;;;-146.52;100.00;63329.72;1013219;29;20013;-86
2021/07/07 02:05:05;;;;;;;2.30;1.33;;;;;;;-146.52;100.00;63329.72;1009236;29;20033;-85
2021/07/07 02:05:36;;;;;;;4.60;1.10;;;;;;;-146.52;100.00;63329.72;997345;29;20385;-86
2021/07/07 02:06:07;;;;;;;2.92;1.40;;;;;;;-146.52;100.00;63329.72;1002050;29;20018;-85
2021/07/07 02:06:38;;;;;;;3.03;1.33;;;;;;;-146.52;100.00;63329.72;1005584;29;20026;-85
2021/07/07 02:07:08;;;;;;;2.10;1.42;;;;;;;-146.52;100.00;63329.72;1005729;29;20014;-86
2021/07/07 02:07:39;;;;;;;2.38;1.60;;;;;;;-146.52;100.00;63329.72;1013524;29;20013;-86
2021/07/07 02:08:10;;;;;;;1.45;1.25;;;;;;;-146.52;100.00;63329.72;998141;29;20003;-87
2021/07/07 02:08:41;;;;;;;3.15;1.70;;;;;;;-146.52;100.00;63329.72;1005932;29;20010;-86
2021/07/07 02:09:11;;;;;;;1.80;1.40;;;;;;;-146.52;100.00;63329.72;1002269;29;20025;-85
2021/07/07 02:09:42;;;;;;;3.25;1.35;;;;;;;-146.52;100.00;63329.72;1001971;29;20055;-84
2021/07/07 02:10:13;;;;;;;1.75;1.13;;;;;;;-146.52;100.00;63329.72;1004564;29;20097;-84
2021/07/07 02:10:44;;;;;;;2.67;1.50;;;;;;;-146.52;100.00;63329.72;1004669;29;20014;-84
2021/07/07 02:11:14;;;;;;;2.33;1.30;;;;;;;-146.52;100.00;63329.72;1012165;29;20053;-87
2021/07/07 02:11:47;;;;;;;5.20;1.35;;;;;;;-146.52;100.00;63329.72;1012513;29;20054;-85
2021/07/07 02:12:17;;;;;;;1.92;1.40;;;;;;;-146.52;100.00;63329.72;1001396;29;20019;-86
2021/07/07 02:12:48;;;;;;;1.85;1.40;;;;;;;-146.52;100.00;63329.72;1012651;29;20017;-86
2021/07/07 02:13:19;;;;;;;2.03;1.40;;;;;;;-146.52;100.00;63329.72;1004514;29;20033;-87
2021/07/07 02:13:49;;;;;;;1.70;1.15;;;;;;;-146.52;100.00;63329.72;1011866;29;20141;-87
2021/07/07 02:14:20;;;;;;;2.25;1.38;;;;;;;-146.52;100.00;63329.72;999118;29;20078;-87
2021/07/07 02:14:51;;;;;;;2.10;1.40;;;;;;;-146.52;100.00;63329.72;1005730;29;20146;-86
2021/07/07 02:15:23;;;;;;;3.40;1.60;;;;;;;-146.52;100.00;63329.72;1009527;29;20507;-87
2021/07/07 02:15:54;;;;;;;2.05;1.30;;;;;;;-146.52;100.00;63329.72;1005507;29;20033;-87
2021/07/07 02:16:24;;;;;;;2.05;1.60;;;;;;;-146.52;100.00;63329.72;1001375;29;20463;-86
2021/07/07 02:16:55;;;;;;;1.90;1.42;;;;;;;-146.52;100.00;63329.72;1001577;29;20121;-86
2021/07/07 02:17:26;;;;;;;2.88;1.23;;;;;;;-146.52;100.00;63329.72;990281;30;20106;-86
2021/07/07 02:17:58;;;;;;;2.47;1.30;;;;;;;-146.52;100.00;63329.72;997938;29;20045;-87
2021/07/07 02:18:28;;;;;;;6.70;1.35;;;;;;;-146.52;100.00;63329.72;1001559;29;20021;-87
2021/07/07 02:18:59;;;;;;;1.67;1.25;;;;;;;-146.52;100.00;63329.72;990198;29;20536;-86
2021/07/07 02:19:30;;;;;;;2.70;1.55;;;;;;;-146.52;100.00;63329.72;1001489;29;20018;-86
2021/07/07 02:20:00;;;;;;;2.40;1.73;;;;;;;-146.52;100.00;63329.72;1005423;29;20112;-85
2021/07/07 02:20:33;;;;;;;1.90;1.50;;;;;;;-146.52;100.00;63329.72;1009202;29;20415;-86
2021/07/07 02:21:04;;;;;;;1.42;1.25;;;;;;;-146.52;100.00;63329.72;993952;29;20050;-85
2021/07/07 02:21:35;;;;;;;2.35;1.65;;;;;;;-146.52;100.00;63329.72;1005421;29;20116;-86
2021/07/07 02:22:05;;;;;;;2.88;1.40;;;;;;;-146.52;100.00;63329.72;1001868;29;20026;-87